Flugplatz Hundheim (UL)

Hier findest Du alle Informationen zum Flugplatz Hundheim (UL).

Informationen für Piloten zum Flugplatz Hundheim

Hier findest Du alle relevanten Informationen, die Du als Pilot benötigst, um Hundheim anzufliegen.

Flugplatz: Hundheim ICAO-Code: UL Flugplatz
Frequenz Turm: 120,975 Mhz GAFOR Gebiet: -
Frequenz Ground: 120,975 Mhz Mogas: nein
Platzrunde: SO 2200 ft Landegebühr: -
Platzhöhe: Sunrise: 06:36 Uhr UTC
Pisten: 04/22 - 400 m x 30 m, GRAS Sunset: 15:52 Uhr UTC

Mitglieder, die in Hundheim fliegen

Flugwetter am Flugplatz Hundheim

Die METAR Information stammen aus EDFH (14.32 km entfernt).

METAR Code:
2019/11/01 20:20
EDFH 012020Z 22012KT 7000 -DZ BKN008 11/10 Q1001

Flugschulen am Flugplatz Hundheim

Am Flugplatz Hundheim gibt es leider keine Flugschule.

Benachbarte Flugplätze und Flugschulen

Es gibt 17 weitere Flugplätze in einem Umkreis von 50 km um den Flugplatz Hundheim.

Jetzt anmelden

Passwort vergessen

Anzeige: Skymap
Umfrage Archiv

Lasst Ihr Euch bei Überlandflügen von FIS begleiten?

Ja, immer!
50 %
Ja, unregelmäßig!
33.3 %
Ja, aber nur selten!
16.7 %
Nein, nie!
0 %
Stimmen: 6 | Diskussion
Anzeige: Roland Aircraft
Statistik Alle Mitglieder

Aktuell sind 24 Besucher online.

Anzeige: VFR Sprechfunk Simulator


Anzeige: Pocket FMS